createdAt,value
2022-10-06T00:01:45.444Z,2.40
2022-10-06T00:04:14.129Z,2.75
2022-10-06T00:06:41.535Z,2.47
2022-10-06T00:09:08.904Z,2.85
2022-10-06T00:11:36.235Z,2.50
2022-10-06T00:14:03.638Z,2.60
2022-10-06T00:16:30.986Z,2.75
2022-10-06T00:18:58.631Z,2.75
2022-10-06T00:21:27.340Z,2.65
2022-10-06T00:23:54.677Z,2.22
2022-10-06T00:26:22.003Z,1.98
2022-10-06T00:28:50.208Z,2.85
2022-10-06T00:31:19.461Z,2.50
2022-10-06T00:33:47.179Z,2.50
2022-10-06T00:36:14.558Z,2.20
2022-10-06T00:38:43.368Z,2.60
2022-10-06T00:41:12.415Z,2.47
2022-10-06T00:43:44.839Z,2.80
2022-10-06T00:46:14.376Z,2.33
2022-10-06T00:48:42.250Z,2.25
2022-10-06T00:51:09.779Z,2.35
2022-10-06T00:53:37.306Z,2.95
2022-10-06T00:56:06.256Z,2.08
2022-10-06T00:58:33.651Z,2.63
2022-10-06T01:01:01.033Z,2.53
2022-10-06T01:03:30.744Z,2.20
2022-10-06T01:05:59.548Z,2.20
2022-10-06T01:08:27.436Z,2.30
2022-10-06T01:10:55.014Z,2.42
2022-10-06T01:13:24.094Z,2.50
2022-10-06T01:15:53.643Z,2.33
2022-10-06T01:18:22.701Z,2.40
2022-10-06T01:20:51.898Z,2.20
2022-10-06T01:23:20.605Z,2.55
2022-10-06T01:25:48.019Z,2.50
2022-10-06T01:28:15.728Z,2.20
2022-10-06T01:30:45.942Z,2.38
2022-10-06T01:33:13.308Z,2.40
2022-10-06T01:35:40.625Z,2.58
2022-10-06T01:38:07.982Z,2.28
2022-10-06T01:40:36.662Z,2.13
2022-10-06T01:43:04.025Z,2.33
2022-10-06T01:45:31.380Z,2.03
2022-10-06T01:47:58.781Z,2.00
2022-10-06T01:50:26.243Z,2.20
2022-10-06T01:52:55.872Z,2.60
2022-10-06T01:55:23.238Z,2.30
2022-10-06T01:57:51.946Z,2.65
2022-10-06T02:00:19.526Z,1.92
2022-10-06T02:02:46.856Z,2.30
2022-10-06T02:05:15.577Z,2.20
2022-10-06T02:07:42.929Z,2.50
2022-10-06T02:10:10.532Z,2.50
2022-10-06T02:12:37.865Z,2.58
2022-10-06T02:15:07.253Z,2.40
2022-10-06T02:17:34.584Z,2.40
2022-10-06T02:20:01.949Z,2.50
2022-10-06T02:22:29.347Z,2.40
2022-10-06T02:24:56.706Z,2.65
2022-10-06T02:27:24.055Z,3.50
2022-10-06T02:29:51.393Z,2.85
2022-10-06T02:32:20.028Z,2.80
2022-10-06T02:34:47.351Z,2.70
2022-10-06T02:37:15.798Z,2.70
2022-10-06T02:39:43.185Z,2.38
2022-10-06T02:42:11.145Z,2.72
2022-10-06T02:44:38.513Z,2.60
2022-10-06T02:47:05.944Z,2.53
2022-10-06T02:49:34.655Z,2.50
2022-10-06T02:52:02.048Z,2.97
2022-10-06T02:54:29.387Z,2.45
2022-10-06T02:56:56.731Z,2.50
2022-10-06T02:59:24.089Z,2.47
2022-10-06T03:01:52.418Z,2.65
2022-10-06T03:04:20.010Z,2.70
2022-10-06T03:06:50.052Z,2.80
2022-10-06T03:09:18.683Z,2.53
2022-10-06T03:11:46.071Z,2.38
2022-10-06T03:14:15.666Z,2.45
2022-10-06T03:16:46.559Z,2.70
2022-10-06T03:19:13.942Z,2.75
2022-10-06T03:21:42.286Z,2.90
2022-10-06T03:24:11.435Z,2.20
2022-10-06T03:26:39.921Z,2.50
2022-10-06T03:29:11.309Z,2.20
2022-10-06T03:31:39.647Z,2.35
2022-10-06T03:34:08.724Z,2.20
2022-10-06T03:36:36.671Z,2.80
2022-10-06T03:39:04.751Z,2.20
2022-10-06T03:41:34.188Z,2.15
2022-10-06T03:44:01.809Z,2.15
2022-10-06T03:46:30.078Z,2.13
2022-10-06T03:48:58.107Z,2.30
2022-10-06T03:51:26.838Z,2.00
2022-10-06T03:53:54.623Z,2.25
2022-10-06T03:56:24.176Z,2.13
2022-10-06T03:58:53.743Z,2.25
2022-10-06T04:01:25.979Z,1.63
2022-10-06T04:03:54.132Z,2.72
2022-10-06T04:06:21.693Z,1.92
2022-10-06T04:08:49.997Z,2.20
2022-10-06T04:11:21.442Z,2.15
2022-10-06T04:13:49.231Z,2.30
2022-10-06T04:16:19.010Z,2.00
2022-10-06T04:18:47.498Z,1.90
2022-10-06T04:21:15.101Z,1.90
2022-10-06T04:23:42.530Z,1.90
2022-10-06T04:26:12.694Z,1.48
2022-10-06T04:28:40.889Z,1.02
2022-10-06T04:31:13.209Z,0.70
2022-10-06T04:33:42.631Z,0.90
2022-10-06T04:36:11.494Z,0.88
2022-10-06T04:38:38.843Z,0.80
2022-10-06T04:41:06.952Z,0.70
2022-10-06T04:43:34.398Z,0.70
2022-10-06T04:46:18.090Z,0.50
2022-10-06T04:48:52.167Z,0.50
2022-10-06T04:51:19.818Z,0.70
2022-10-06T04:53:47.155Z,0.60
2022-10-06T04:56:15.416Z,0.55
2022-10-06T04:58:43.816Z,0.90
2022-10-06T05:01:13.979Z,0.60
2022-10-06T05:03:41.391Z,0.60
2022-10-06T05:06:12.782Z,0.68
2022-10-06T05:08:40.639Z,0.80
2022-10-06T05:11:13.671Z,0.57
2022-10-06T05:13:44.129Z,0.60
2022-10-06T05:16:12.709Z,0.60
2022-10-06T05:18:40.227Z,0.98
2022-10-06T05:21:08.630Z,0.65
2022-10-06T05:23:38.979Z,0.47
2022-10-06T05:26:06.443Z,0.70
2022-10-06T05:28:34.613Z,0.60
2022-10-06T05:31:05.897Z,0.60
2022-10-06T05:33:34.287Z,0.60
2022-10-06T05:36:02.557Z,0.50
2022-10-06T05:38:30.690Z,0.50
2022-10-06T05:41:02.888Z,0.70
2022-10-06T05:43:30.244Z,0.60
2022-10-06T05:45:58.560Z,0.73
2022-10-06T05:48:26.379Z,0.40
2022-10-06T05:50:58.869Z,0.40
2022-10-06T05:53:26.228Z,0.40
2022-10-06T05:55:53.572Z,0.50
2022-10-06T05:58:22.808Z,0.55
2022-10-06T06:00:50.183Z,0.50
2022-10-06T06:03:17.540Z,0.45
2022-10-06T06:05:45.791Z,0.40
2022-10-06T06:08:13.177Z,0.60
2022-10-06T06:10:40.511Z,0.40
2022-10-06T06:13:07.847Z,0.50
2022-10-06T06:15:54.130Z,0.40
2022-10-06T06:18:21.574Z,0.40
2022-10-06T06:20:55.888Z,0.40
2022-10-06T06:23:23.278Z,0.40
2022-10-06T06:26:01.416Z,0.50
2022-10-06T06:28:30.610Z,0.45
2022-10-06T06:31:04.002Z,0.40
2022-10-06T06:33:31.698Z,0.30
2022-10-06T06:36:03.192Z,0.40
2022-10-06T06:38:31.927Z,0.52
2022-10-06T06:40:59.876Z,0.43
2022-10-06T06:43:27.595Z,0.47
2022-10-06T06:45:55.323Z,0.40
2022-10-06T06:48:23.973Z,0.40
2022-10-06T06:50:58.401Z,0.50
2022-10-06T06:53:26.069Z,0.47
2022-10-06T06:55:53.451Z,0.50
2022-10-06T06:58:21.169Z,0.40
2022-10-06T07:00:49.070Z,0.40
2022-10-06T07:03:28.243Z,0.32
2022-10-06T07:06:09.466Z,0.43
2022-10-06T07:08:37.537Z,0.47
2022-10-06T07:11:14.725Z,0.50
2022-10-06T07:13:42.435Z,0.50
2022-10-06T07:16:28.476Z,0.40
2022-10-06T07:19:13.161Z,0.50
2022-10-06T07:21:59.768Z,0.55
2022-10-06T07:24:44.539Z,0.60
2022-10-06T07:27:11.898Z,0.60
2022-10-06T07:29:39.282Z,0.82
2022-10-06T07:32:06.635Z,0.73
2022-10-06T07:34:34.350Z,0.40
2022-10-06T07:37:06.387Z,0.80
2022-10-06T07:39:34.068Z,0.98
2022-10-06T07:42:01.472Z,0.75
2022-10-06T07:44:28.891Z,0.80
2022-10-06T07:46:56.302Z,0.73
2022-10-06T07:49:23.690Z,0.90
2022-10-06T07:51:51.051Z,0.55
2022-10-06T07:54:23.996Z,0.75
2022-10-06T07:56:54.619Z,1.02
2022-10-06T07:59:22.108Z,0.70
2022-10-06T08:01:51.235Z,0.88
2022-10-06T08:04:18.690Z,0.63
2022-10-06T08:06:47.564Z,0.50
2022-10-06T08:09:14.947Z,0.75
2022-10-06T08:11:44.978Z,0.50
2022-10-06T08:14:14.974Z,0.70
2022-10-06T08:16:42.366Z,1.05
2022-10-06T08:19:11.490Z,0.60
2022-10-06T08:21:39.622Z,0.60
2022-10-06T08:24:07.179Z,0.45
2022-10-06T08:26:34.548Z,0.68
2022-10-06T08:29:03.847Z,0.68
2022-10-06T08:31:31.924Z,0.68
2022-10-06T08:33:59.549Z,0.60
2022-10-06T08:36:31.419Z,0.90
2022-10-06T08:38:59.598Z,0.75
2022-10-06T08:41:27.736Z,0.80
2022-10-06T08:43:59.130Z,0.65
2022-10-06T08:46:31.196Z,0.95
2022-10-06T08:48:59.029Z,0.82
2022-10-06T08:51:31.129Z,0.80
2022-10-06T08:54:01.875Z,0.90
2022-10-06T08:58:58.336Z,0.70
2022-10-06T09:01:26.497Z,0.68
2022-10-06T09:03:57.168Z,0.63
2022-10-06T09:06:34.202Z,1.20
2022-10-06T09:09:04.497Z,0.50
2022-10-06T09:11:45.745Z,0.70
2022-10-06T09:14:16.238Z,0.82
2022-10-06T09:16:45.678Z,1.02
2022-10-06T09:19:17.749Z,1.05
2022-10-06T09:21:47.147Z,0.80
2022-10-06T09:24:15.239Z,0.90
2022-10-06T09:26:45.200Z,0.68
2022-10-06T09:29:12.948Z,0.60
2022-10-06T09:31:42.124Z,0.80
2022-10-06T09:34:21.638Z,0.70
2022-10-06T09:37:02.006Z,0.60
2022-10-06T09:39:33.257Z,0.88
2022-10-06T09:42:04.773Z,0.80
2022-10-06T09:44:38.244Z,1.13
2022-10-06T09:47:23.498Z,0.98
2022-10-06T09:50:04.419Z,0.82
2022-10-06T09:52:31.808Z,0.80
2022-10-06T09:55:07.014Z,0.70
2022-10-06T09:57:34.655Z,0.80
2022-10-06T10:00:02.514Z,0.70
2022-10-06T10:02:36.758Z,1.00
2022-10-06T10:05:07.544Z,1.05
2022-10-06T10:07:36.140Z,0.85
2022-10-06T10:10:20.291Z,0.70
2022-10-06T10:12:51.278Z,0.70
2022-10-06T10:15:26.271Z,0.75
2022-10-06T10:17:55.358Z,0.90
2022-10-06T10:20:29.041Z,1.05
2022-10-06T10:22:57.203Z,0.70
2022-10-06T10:25:35.440Z,1.10
2022-10-06T10:28:07.571Z,0.82
2022-10-06T10:30:39.189Z,0.90
2022-10-06T10:33:11.100Z,0.90
2022-10-06T10:35:41.832Z,1.20
2022-10-06T10:38:14.886Z,0.70
2022-10-06T10:40:45.658Z,0.63
2022-10-06T10:43:19.397Z,0.80
2022-10-06T10:45:48.199Z,0.80
2022-10-06T10:48:17.764Z,0.80
2022-10-06T10:50:51.048Z,0.75
2022-10-06T10:53:21.246Z,0.85
2022-10-06T10:55:50.052Z,0.60
2022-10-06T10:58:20.101Z,0.70
2022-10-06T11:00:49.684Z,0.70
2022-10-06T11:03:17.090Z,0.68
2022-10-06T11:05:56.143Z,0.57
2022-10-06T11:08:28.735Z,0.80
2022-10-06T11:10:57.965Z,0.75
2022-10-06T11:13:29.282Z,0.75
2022-10-06T11:16:11.983Z,0.63
2022-10-06T11:18:47.007Z,0.82
2022-10-06T11:21:18.358Z,0.70
2022-10-06T11:23:53.329Z,1.27
2022-10-06T11:26:27.112Z,0.80
2022-10-06T11:28:59.576Z,1.00
2022-10-06T11:31:33.343Z,0.80
2022-10-06T11:34:01.346Z,0.90
2022-10-06T11:36:35.573Z,0.57
2022-10-06T11:39:08.412Z,0.70
2022-10-06T11:41:39.439Z,0.73
2022-10-06T11:44:13.589Z,0.93
2022-10-06T11:46:45.280Z,0.60
2022-10-06T11:49:32.050Z,0.73
2022-10-06T11:52:22.800Z,1.13
2022-10-06T11:54:52.886Z,0.80
2022-10-06T11:57:32.335Z,0.50
2022-10-06T12:00:14.602Z,0.70
2022-10-06T12:02:42.655Z,0.70
2022-10-06T12:05:55.366Z,1.00
2022-10-06T12:08:16.693Z,0.60
2022-10-06T12:10:50.847Z,0.70
2022-10-06T12:14:12.067Z,1.02
2022-10-06T12:19:18.635Z,0.88
2022-10-06T12:21:50.758Z,1.00
2022-10-06T12:24:26.159Z,0.90
2022-10-06T12:27:00.310Z,0.90
2022-10-06T12:29:39.006Z,1.42
2022-10-06T12:32:14.304Z,0.85
2022-10-06T12:34:42.814Z,0.98
2022-10-06T12:37:34.648Z,0.82
2022-10-06T12:40:20.656Z,1.10
2022-10-06T12:42:49.429Z,1.23
2022-10-06T12:45:17.531Z,0.90
2022-10-06T12:47:46.593Z,0.70
2022-10-06T12:50:16.289Z,0.95
2022-10-06T12:52:47.925Z,1.10
2022-10-06T12:55:33.126Z,0.90
2022-10-06T12:58:02.192Z,1.13
2022-10-06T13:00:34.566Z,0.93
2022-10-06T13:03:03.233Z,0.73
2022-10-06T13:05:30.927Z,0.65
2022-10-06T13:07:59.158Z,0.95
2022-10-06T13:10:29.148Z,0.80
2022-10-06T13:12:58.023Z,0.80
2022-10-06T13:15:29.037Z,1.05
2022-10-06T13:17:57.866Z,0.80
2022-10-06T13:20:33.089Z,0.98
2022-10-06T13:23:01.322Z,0.80
2022-10-06T13:25:33.411Z,0.77
2022-10-06T13:28:02.195Z,0.60
2022-10-06T13:30:35.002Z,0.80
2022-10-06T13:33:05.146Z,0.85
2022-10-06T13:35:32.580Z,0.70
2022-10-06T13:38:02.545Z,1.30
2022-10-06T13:40:44.247Z,0.70
2022-10-06T13:43:16.414Z,0.82
2022-10-06T13:45:45.723Z,1.00
2022-10-06T13:48:16.586Z,0.85
2022-10-06T13:50:47.639Z,0.65
2022-10-06T13:53:26.430Z,0.50
2022-10-06T13:55:53.801Z,1.15
2022-10-06T13:58:23.730Z,0.88
2022-10-06T14:00:55.860Z,0.68
2022-10-06T14:03:24.663Z,0.70
2022-10-06T14:05:52.778Z,1.10
2022-10-06T14:08:23.635Z,0.70
2022-10-06T14:10:52.654Z,0.82
2022-10-06T14:13:21.349Z,0.80
2022-10-06T14:15:50.151Z,1.02
2022-10-06T14:18:23.566Z,0.52
2022-10-06T14:20:51.505Z,0.90
2022-10-06T14:23:49.115Z,0.88
2022-10-06T14:26:17.291Z,0.80
2022-10-06T14:28:48.943Z,0.82
2022-10-06T14:31:16.398Z,1.00
2022-10-06T14:33:46.411Z,0.73
2022-10-06T14:36:17.763Z,0.82
2022-10-06T14:38:47.057Z,1.00
2022-10-06T14:41:18.883Z,0.90
2022-10-06T14:43:47.325Z,0.93
2022-10-06T14:46:15.521Z,0.90
2022-10-06T14:48:42.943Z,1.02
2022-10-06T14:51:11.659Z,0.80
2022-10-06T14:53:40.279Z,0.98
2022-10-06T14:56:09.012Z,0.70
2022-10-06T14:58:42.108Z,0.75
2022-10-06T15:01:12.243Z,0.90
2022-10-06T15:06:25.384Z,0.95
2022-10-06T15:08:54.487Z,0.70
2022-10-06T15:11:22.758Z,0.93
2022-10-06T15:13:51.023Z,1.25
2022-10-06T15:16:18.870Z,1.00
2022-10-06T15:18:46.308Z,1.00
2022-10-06T15:21:13.706Z,0.93
2022-10-06T15:23:41.040Z,1.15
2022-10-06T15:26:28.292Z,1.02
2022-10-06T15:29:01.862Z,0.95
2022-10-06T15:31:30.078Z,0.93
2022-10-06T15:33:57.478Z,1.20
2022-10-06T15:36:25.564Z,1.10
2022-10-06T15:38:52.967Z,0.90
2022-10-06T15:41:21.932Z,1.00
2022-10-06T15:43:58.348Z,1.33
2022-10-06T15:46:29.352Z,1.25
2022-10-06T15:48:58.896Z,0.85
2022-10-06T15:51:26.844Z,1.10
2022-10-06T15:53:54.260Z,1.15
2022-10-06T15:56:22.987Z,0.85
2022-10-06T15:58:50.326Z,1.02
2022-10-06T16:01:27.991Z,0.93
2022-10-06T16:03:56.670Z,0.93
2022-10-06T16:06:39.986Z,1.08
2022-10-06T16:11:36.420Z,0.80
2022-10-06T16:14:03.965Z,0.90
2022-10-06T16:16:31.436Z,0.88
2022-10-06T16:18:58.835Z,0.90
2022-10-06T16:21:26.360Z,1.13
2022-10-06T16:23:54.215Z,1.10
2022-10-06T16:26:23.443Z,1.27
2022-10-06T16:28:52.518Z,1.10
2022-10-06T16:31:20.274Z,1.00
2022-10-06T16:33:47.728Z,1.10
2022-10-06T16:36:16.164Z,1.10
2022-10-06T16:38:43.839Z,1.13
2022-10-06T16:41:11.552Z,1.65
2022-10-06T16:43:40.006Z,1.55
2022-10-06T16:46:09.480Z,1.25
2022-10-06T16:48:38.455Z,1.13
2022-10-06T16:51:06.331Z,1.02
2022-10-06T16:53:37.100Z,1.50
2022-10-06T16:56:05.354Z,1.30
2022-10-06T16:58:36.107Z,1.50
2022-10-06T17:01:03.547Z,1.20
2022-10-06T17:03:32.424Z,1.15
2022-10-06T17:06:03.574Z,1.15
2022-10-06T17:08:30.954Z,1.20
2022-10-06T17:11:06.671Z,1.20
2022-10-06T17:13:34.386Z,1.30
2022-10-06T17:16:03.471Z,1.30
2022-10-06T17:18:32.422Z,1.33
2022-10-06T17:21:00.640Z,1.63
2022-10-06T17:23:28.669Z,1.20
2022-10-06T17:26:07.458Z,1.65
2022-10-06T17:28:35.280Z,1.60
2022-10-06T17:31:03.120Z,2.00
2022-10-06T17:33:34.010Z,2.17
2022-10-06T17:36:06.060Z,2.10
2022-10-06T17:38:33.751Z,2.28
2022-10-06T17:41:06.664Z,1.92
2022-10-06T17:43:37.698Z,1.90
2022-10-06T17:46:05.681Z,1.90
2022-10-06T17:48:34.456Z,1.55
2022-10-06T17:51:01.998Z,1.33
2022-10-06T17:53:29.339Z,1.38
2022-10-06T17:55:56.696Z,2.13
2022-10-06T17:58:24.078Z,1.85
2022-10-06T18:00:51.638Z,2.28
2022-10-06T18:03:19.483Z,2.00
2022-10-06T18:05:58.773Z,1.55
2022-10-06T18:08:27.397Z,1.58
2022-10-06T18:11:12.153Z,1.70
2022-10-06T18:13:39.498Z,1.70
2022-10-06T18:16:13.544Z,2.20
2022-10-06T18:18:43.684Z,1.52
2022-10-06T18:21:12.389Z,1.63
2022-10-06T18:23:42.693Z,2.17
2022-10-06T18:26:11.461Z,1.60
2022-10-06T18:28:39.434Z,2.13
2022-10-06T18:31:07.216Z,2.03
2022-10-06T18:36:24.183Z,2.10
2022-10-06T18:38:55.006Z,1.67
2022-10-06T18:41:23.965Z,2.10
2022-10-06T18:43:51.740Z,2.60
2022-10-06T18:46:36.851Z,2.40
2022-10-06T18:49:08.710Z,2.80
2022-10-06T18:51:38.409Z,4.05
2022-10-06T18:54:06.875Z,3.20
2022-10-06T18:56:35.123Z,3.40
2022-10-06T18:59:02.936Z,2.92
2022-10-06T19:01:31.551Z,3.05
2022-10-06T19:04:01.129Z,4.20
2022-10-06T19:06:29.638Z,2.95
2022-10-06T19:09:00.701Z,3.40
2022-10-06T19:11:48.382Z,3.05
2022-10-06T19:14:17.264Z,3.28
2022-10-06T19:16:45.041Z,3.40
2022-10-06T19:19:13.386Z,3.17
2022-10-06T19:21:42.280Z,3.15
2022-10-06T19:24:12.401Z,3.42
2022-10-06T19:26:45.154Z,3.38
2022-10-06T19:29:13.980Z,2.80
2022-10-06T19:31:42.690Z,2.30
2022-10-06T19:34:11.026Z,2.55
2022-10-06T19:36:39.092Z,3.15
2022-10-06T19:39:06.959Z,2.45
2022-10-06T19:41:53.342Z,2.85
2022-10-06T19:44:20.721Z,3.65
2022-10-06T19:46:48.729Z,3.10
2022-10-06T19:49:17.028Z,3.05
2022-10-06T19:51:44.760Z,3.22
2022-10-06T19:54:13.148Z,3.30
2022-10-06T19:56:42.043Z,2.88
2022-10-06T19:59:13.520Z,2.70
2022-10-06T20:01:42.164Z,3.28
2022-10-06T20:04:10.039Z,2.78
2022-10-06T20:06:39.730Z,2.42
2022-10-06T20:09:08.840Z,2.35
2022-10-06T20:11:36.244Z,3.13
2022-10-06T20:14:05.065Z,2.55
2022-10-06T20:16:33.258Z,2.22
2022-10-06T20:19:00.763Z,3.03
2022-10-06T20:21:30.823Z,3.70
2022-10-06T20:23:59.454Z,5.68
2022-10-06T20:26:30.934Z,6.28
2022-10-06T20:28:58.998Z,4.10
2022-10-06T20:31:28.682Z,2.88
2022-10-06T20:33:57.978Z,2.42
2022-10-06T20:36:25.411Z,2.90
2022-10-06T20:39:24.994Z,2.70
2022-10-06T20:41:53.189Z,3.17
2022-10-06T20:44:20.641Z,2.67
2022-10-06T20:46:49.404Z,3.20
2022-10-06T20:49:17.651Z,3.08
2022-10-06T20:51:46.795Z,3.42
2022-10-06T20:54:16.029Z,3.60
2022-10-06T20:56:43.695Z,4.03
2022-10-06T20:59:12.343Z,2.95
2022-10-06T21:01:40.250Z,2.80
2022-10-06T21:04:09.479Z,3.13
2022-10-06T21:06:38.719Z,2.35
2022-10-06T21:09:06.155Z,2.45
2022-10-06T21:11:34.118Z,3.15
2022-10-06T21:14:02.030Z,3.00
2022-10-06T21:16:32.081Z,2.60
2022-10-06T21:19:00.326Z,2.85
2022-10-06T21:21:29.199Z,2.63
2022-10-06T21:23:56.559Z,3.40
2022-10-06T21:26:25.865Z,2.60
2022-10-06T21:28:53.335Z,2.90
2022-10-06T21:31:21.512Z,2.40
2022-10-06T21:33:50.267Z,2.33
2022-10-06T21:36:18.711Z,2.53
2022-10-06T21:38:48.286Z,2.72
2022-10-06T21:41:31.766Z,2.80
2022-10-06T21:43:59.813Z,2.30
2022-10-06T21:46:29.160Z,2.72
2022-10-06T21:48:57.414Z,2.78
2022-10-06T21:51:25.115Z,3.30
2022-10-06T21:53:54.338Z,3.03
2022-10-06T21:56:22.142Z,2.55
2022-10-06T21:58:51.619Z,2.45
2022-10-06T22:01:19.810Z,2.40
2022-10-06T22:03:47.237Z,2.40
2022-10-06T22:06:19.086Z,3.05
2022-10-06T22:08:47.373Z,3.28
2022-10-06T22:11:23.148Z,2.60
2022-10-06T22:13:51.678Z,2.63
2022-10-06T22:16:20.334Z,3.00
2022-10-06T22:18:48.197Z,2.72
2022-10-06T22:21:17.175Z,2.58
2022-10-06T22:23:45.199Z,2.92
2022-10-06T22:26:13.526Z,2.58
2022-10-06T22:28:45.263Z,3.03
2022-10-06T22:31:13.251Z,2.88
2022-10-06T22:33:41.168Z,2.72
2022-10-06T22:36:09.229Z,2.80
2022-10-06T22:38:36.607Z,2.97
2022-10-06T22:41:04.528Z,2.88
2022-10-06T22:43:31.939Z,2.90
2022-10-06T22:46:00.867Z,3.03
2022-10-06T22:48:28.336Z,2.67
2022-10-06T22:50:55.695Z,3.05
2022-10-06T22:53:24.659Z,2.80
2022-10-06T22:55:52.507Z,3.08
2022-10-06T22:58:20.015Z,3.17
2022-10-06T23:00:47.467Z,3.38
2022-10-06T23:03:17.637Z,3.53
2022-10-06T23:05:54.197Z,2.63
2022-10-06T23:08:21.609Z,3.22
2022-10-06T23:10:49.107Z,2.90
2022-10-06T23:13:16.503Z,3.10
2022-10-06T23:15:44.019Z,2.88
2022-10-06T23:18:11.419Z,3.00
2022-10-06T23:20:40.158Z,3.20
2022-10-06T23:23:07.588Z,2.83
2022-10-06T23:25:37.163Z,2.88
2022-10-06T23:28:04.637Z,3.45
2022-10-06T23:30:32.040Z,3.20
2022-10-06T23:32:59.417Z,3.08
2022-10-06T23:35:26.824Z,3.35
2022-10-06T23:37:55.570Z,3.65
2022-10-06T23:40:22.959Z,3.20
2022-10-06T23:42:50.351Z,3.42
2022-10-06T23:45:17.751Z,3.28
2022-10-06T23:47:45.355Z,3.13
2022-10-06T23:50:13.026Z,3.45
2022-10-06T23:52:41.423Z,3.35
2022-10-06T23:55:10.298Z,3.70
2022-10-06T23:57:37.660Z,3.17
